KCBE/CBE METAR and TAF weather

Enter ICAO airport designator
Station Type Date Time Source
KCBE METAR 2018/04/21 20:56 UTC NOAA

KCBE 212056Z AUTO 00000KT 10SM CLR 17/M05 A3035 RMK AO1


Station Type Date Time Source
KCBE Decoded METAR 2018/04/21 20:56 UTC NOAA

Cumberland, Greater Cumberland Regional Airport, MD, United States (KCBE) 39-36-55N 078-45-39W
Apr 21, 2018 - 04:56 PM EDT / 2018.04.21 2056 UTC
Wind: Calm:0
Visibility: 10 mile(s):0
Sky conditions: clear
Temperature: 62 F (17 C)
Dew Point: 23 F (-5 C)
Relative Humidity: 21%
Pressure (altimeter): 30.35 in. Hg (1027 hPa)
ob: KCBE 212056Z AUTO 00000KT 10SM CLR 17/M05 A3035 RMK AO1
cycle: 21

Station Type Date Time Source
KCBE TAF UTC NOAA

Error!


Example: see airport list